sensor_id;sensor_type;location;lat;lon;timestamp;pressure;altitude;pressure_sealevel;temperature;humidity
63956;BME280;50131;52.084;5.228;2022-10-03T00:04:26;102592.0;;;10.9;88.76
63956;BME280;50131;52.084;5.228;2022-10-03T00:06:12;102596.0;;;11.03;87.99
63956;BME280;50131;52.084;5.228;2022-10-03T00:08:00;102592.0;;;11.05;88.17
63956;BME280;50131;52.084;5.228;2022-10-03T00:11:38;102598.0;;;11.06;87.58
63956;BME280;50131;52.084;5.228;2022-10-03T00:13:26;102606.0;;;10.89;87.72
63956;BME280;50131;52.084;5.228;2022-10-03T00:15:12;102607.0;;;10.74;88.29
63956;BME280;50131;52.084;5.228;2022-10-03T00:16:57;102608.0;;;10.6;89.98
63956;BME280;50131;52.084;5.228;2022-10-03T00:18:47;102605.0;;;10.51;92.01
63956;BME280;50131;52.084;5.228;2022-10-03T00:20:38;102609.99999999999;;;10.45;90.95
63956;BME280;50131;52.084;5.228;2022-10-03T00:23:26;102611.99999999999;;;10.42;91.36
63956;BME280;50131;52.084;5.228;2022-10-03T00:25:23;102620.0;;;10.4;92.28
63956;BME280;50131;52.084;5.228;2022-10-03T00:27:10;102620.0;;;10.4;91.59
63956;BME280;50131;52.084;5.228;2022-10-03T00:28:59;102629.0;;;10.54;91.61
63956;BME280;50131;52.084;5.228;2022-10-03T00:30:54;102623.0;;;10.59;91.64
63956;BME280;50131;52.084;5.228;2022-10-03T00:34:41;102627.0;;;10.74;90.59
63956;BME280;50131;52.084;5.228;2022-10-03T00:36:36;102633.0;;;10.54;90.02
63956;BME280;50131;52.084;5.228;2022-10-03T00:38:36;102630.0;;;10.38;90.99
63956;BME280;50131;52.084;5.228;2022-10-03T00:40:38;102628.0;;;10.31;91.48
63956;BME280;50131;52.084;5.228;2022-10-03T00:42:46;102627.0;;;10.26;91.91
63956;BME280;50131;52.084;5.228;2022-10-03T00:46:17;102622.0;;;10.17;93.43
63956;BME280;50131;52.084;5.228;2022-10-03T00:50:03;102626.0;;;10.11;93.0
63956;BME280;50131;52.084;5.228;2022-10-03T00:52:12;102631.0;;;10.08;92.91
63956;BME280;50131;52.084;5.228;2022-10-03T00:54:33;102636.99999999999;;;10.09;92.3
63956;BME280;50131;52.084;5.228;2022-10-03T00:56:40;102634.99999999999;;;10.14;91.85
63956;BME280;50131;52.084;5.228;2022-10-03T00:58:36;102642.0;;;10.24;91.22
63956;BME280;50131;52.084;5.228;2022-10-03T01:00:26;102645.0;;;10.3;90.34
63956;BME280;50131;52.084;5.228;2022-10-03T01:02:21;102648.0;;;10.29;89.32
63956;BME280;50131;52.084;5.228;2022-10-03T01:04:25;102647.0;;;10.11;90.4
63956;BME280;50131;52.084;5.228;2022-10-03T01:06:22;102647.0;;;10.06;91.48
63956;BME280;50131;52.084;5.228;2022-10-03T01:10:41;102655.0;;;10.02;90.8
63956;BME280;50131;52.084;5.228;2022-10-03T01:14:36;102658.99999999999;;;10.03;90.05
63956;BME280;50131;52.084;5.228;2022-10-03T01:16:27;102667.0;;;9.96;90.18
63956;BME280;50131;52.084;5.228;2022-10-03T01:18:17;102666.00000000001;;;9.81;90.66
63956;BME280;50131;52.084;5.228;2022-10-03T01:20:08;102665.00000000001;;;9.8;92.05
63956;BME280;50131;52.084;5.228;2022-10-03T01:21:59;102664.00000000001;;;9.78;91.76
63956;BME280;50131;52.084;5.228;2022-10-03T01:24:11;102667.0;;;9.89;91.39
63956;BME280;50131;52.084;5.228;2022-10-03T01:26:53;102669.0;;;9.93;90.36
63956;BME280;50131;52.084;5.228;2022-10-03T01:31:31;102666.00000000001;;;9.81;91.55
63956;BME280;50131;52.084;5.228;2022-10-03T01:35:02;102661.99999999999;;;9.8;92.27
63956;BME280;50131;52.084;5.228;2022-10-03T01:36:53;102658.0;;;9.77;92.91
63956;BME280;50131;52.084;5.228;2022-10-03T01:38:36;102659.99999999999;;;9.81;92.33
63956;BME280;50131;52.084;5.228;2022-10-03T01:40:24;102658.99999999999;;;9.83;91.47
63956;BME280;50131;52.084;5.228;2022-10-03T01:42:08;102661.99999999999;;;9.89;91.79
63956;BME280;50131;52.084;5.228;2022-10-03T01:45:36;102665.00000000001;;;9.89;91.57
63956;BME280;50131;52.084;5.228;2022-10-03T01:47:23;102667.0;;;9.98;90.08
63956;BME280;50131;52.084;5.228;2022-10-03T01:49:09;102667.0;;;9.92;90.34
63956;BME280;50131;52.084;5.228;2022-10-03T01:50:59;102667.0;;;9.76;90.69
63956;BME280;50131;52.084;5.228;2022-10-03T01:52:42;102669.0;;;9.73;91.09
63956;BME280;50131;52.084;5.228;2022-10-03T01:54:33;102670.0;;;9.65;91.19
63956;BME280;50131;52.084;5.228;2022-10-03T01:58:06;102673.0;;;9.57;91.45
63956;BME280;50131;52.084;5.228;2022-10-03T01:59:49;102667.0;;;9.71;90.91
63956;BME280;50131;52.084;5.228;2022-10-03T02:01:37;102673.0;;;9.74;90.32
63956;BME280;50131;52.084;5.228;2022-10-03T02:03:22;102673.0;;;9.66;91.04
63956;BME280;50131;52.084;5.228;2022-10-03T02:05:08;102671.0;;;9.73;91.31
63956;BME280;50131;52.084;5.228;2022-10-03T02:08:48;102669.0;;;9.83;90.26
63956;BME280;50131;52.084;5.228;2022-10-03T02:10:37;102668.0;;;9.65;90.48
63956;BME280;50131;52.084;5.228;2022-10-03T02:12:28;102675.0;;;9.55;90.57
63956;BME280;50131;52.084;5.228;2022-10-03T02:14:18;102679.0;;;9.63;91.39
63956;BME280;50131;52.084;5.228;2022-10-03T02:16:04;102677.0;;;9.73;91.18
63956;BME280;50131;52.084;5.228;2022-10-03T02:17:51;102675.0;;;9.72;90.78
63956;BME280;50131;52.084;5.228;2022-10-03T02:19:39;102676.0;;;9.56;92.17
63956;BME280;50131;52.084;5.228;2022-10-03T02:22:57;102677.0;;;9.44;93.08
63956;BME280;50131;52.084;5.228;2022-10-03T02:24:40;102677.0;;;9.41;93.01
63956;BME280;50131;52.084;5.228;2022-10-03T02:27:03;102677.0;;;9.39;93.89
63956;BME280;50131;52.084;5.228;2022-10-03T02:29:21;102677.0;;;9.38;93.86
63956;BME280;50131;52.084;5.228;2022-10-03T02:31:20;102680.0;;;9.39;93.45
63956;BME280;50131;52.084;5.228;2022-10-03T02:35:43;102675.0;;;9.34;93.31
63956;BME280;50131;52.084;5.228;2022-10-03T02:37:58;102676.0;;;9.34;92.95
63956;BME280;50131;52.084;5.228;2022-10-03T02:40:08;102674.0;;;9.34;94.18
63956;BME280;50131;52.084;5.228;2022-10-03T02:44:39;102678.0;;;9.36;93.35
63956;BME280;50131;52.084;5.228;2022-10-03T02:46:49;102681.0;;;9.31;92.95
63956;BME280;50131;52.084;5.228;2022-10-03T02:50:57;102676.0;;;9.28;94.36
63956;BME280;50131;52.084;5.228;2022-10-03T02:53:56;102680.0;;;9.22;93.89
63956;BME280;50131;52.084;5.228;2022-10-03T02:54:52;102680.0;;;9.22;93.89
63956;BME280;50131;52.084;5.228;2022-10-03T02:55:29;102679.0;;;9.21;93.84
63956;BME280;50131;52.084;5.228;2022-10-03T02:56:29;102679.0;;;9.21;93.84
63956;BME280;50131;52.084;5.228;2022-10-03T02:58:37;102679.0;;;9.23;93.17
63956;BME280;50131;52.084;5.228;2022-10-03T02:59:33;102679.0;;;9.26;93.28
63956;BME280;50131;52.084;5.228;2022-10-03T03:00:16;102679.0;;;9.26;93.28
63956;BME280;50131;52.084;5.228;2022-10-03T03:03:07;102681.0;;;9.23;93.71
63956;BME280;50131;52.084;5.228;2022-10-03T03:06:40;102682.0;;;9.21;92.44
63956;BME280;50131;52.084;5.228;2022-10-03T03:09:29;102681.0;;;9.14;93.09
63956;BME280;50131;52.084;5.228;2022-10-03T03:11:49;102682.0;;;9.13;94.37
63956;BME280;50131;52.084;5.228;2022-10-03T03:15:39;102692.0;;;9.25;92.56
63956;BME280;50131;52.084;5.228;2022-10-03T03:19:11;102692.0;;;9.02;92.04
63956;BME280;50131;52.084;5.228;2022-10-03T03:21:00;102694.0;;;9.01;93.5
63956;BME280;50131;52.084;5.228;2022-10-03T03:22:59;102695.0;;;9.03;94.91
63956;BME280;50131;52.084;5.228;2022-10-03T03:25:11;102698.0;;;9.11;94.47
63956;BME280;50131;52.084;5.228;2022-10-03T03:27:05;102699.0;;;9.21;93.09
63956;BME280;50131;52.084;5.228;2022-10-03T03:28:53;102699.0;;;9.06;92.58
63956;BME280;50131;52.084;5.228;2022-10-03T03:30:51;102693.0;;;9.03;92.92
63956;BME280;50131;52.084;5.228;2022-10-03T03:34:28;102701.0;;;8.99;92.56
63956;BME280;50131;52.084;5.228;2022-10-03T03:36:21;102700.0;;;9.01;91.43
63956;BME280;50131;52.084;5.228;2022-10-03T03:38:13;102698.0;;;8.92;92.13
63956;BME280;50131;52.084;5.228;2022-10-03T03:40:06;102696.0;;;8.88;91.83
63956;BME280;50131;52.084;5.228;2022-10-03T03:42:11;102697.0;;;8.88;92.16
63956;BME280;50131;52.084;5.228;2022-10-03T03:44:22;102700.0;;;8.89;92.22
63956;BME280;50131;52.084;5.228;2022-10-03T03:46:32;102705.0;;;8.91;91.74
63956;BME280;50131;52.084;5.228;2022-10-03T03:48:56;102703.0;;;8.86;91.79
63956;BME280;50131;52.084;5.228;2022-10-03T03:50:45;102698.0;;;8.78;91.62
63956;BME280;50131;52.084;5.228;2022-10-03T03:52:41;102697.0;;;8.74;92.11
63956;BME280;50131;52.084;5.228;2022-10-03T03:54:45;102701.0;;;8.78;92.43
63956;BME280;50131;52.084;5.228;2022-10-03T03:56:49;102700.0;;;8.78;92.89
63956;BME280;50131;52.084;5.228;2022-10-03T03:58:39;102700.0;;;8.83;92.5
63956;BME280;50131;52.084;5.228;2022-10-03T04:00:29;102699.0;;;8.77;94.26
63956;BME280;50131;52.084;5.228;2022-10-03T04:02:22;102698.0;;;8.78;92.65
63956;BME280;50131;52.084;5.228;2022-10-03T04:04:18;102699.0;;;8.8;92.42
63956;BME280;50131;52.084;5.228;2022-10-03T04:08:25;102694.0;;;8.73;92.0
63956;BME280;50131;52.084;5.228;2022-10-03T04:12:22;102694.0;;;8.72;91.67
63956;BME280;50131;52.084;5.228;2022-10-03T04:14:29;102695.0;;;8.81;92.37
63956;BME280;50131;52.084;5.228;2022-10-03T04:19:19;102700.0;;;8.69;92.66
63956;BME280;50131;52.084;5.228;2022-10-03T04:21:11;102705.0;;;8.64;93.62
63956;BME280;50131;52.084;5.228;2022-10-03T04:23:09;102705.0;;;8.56;93.78
63956;BME280;50131;52.084;5.228;2022-10-03T04:27:17;102713.00000000001;;;8.85;92.93
63956;BME280;50131;52.084;5.228;2022-10-03T04:31:56;102718.0;;;8.64;90.3
63956;BME280;50131;52.084;5.228;2022-10-03T04:33:47;102717.0;;;8.59;90.18
63956;BME280;50131;52.084;5.228;2022-10-03T04:35:41;102722.0;;;8.72;89.75
63956;BME280;50131;52.084;5.228;2022-10-03T04:39:09;102730.0;;;8.78;89.7
63956;BME280;50131;52.084;5.228;2022-10-03T04:40:56;102730.0;;;8.71;90.64
63956;BME280;50131;52.084;5.228;2022-10-03T04:42:56;102732.0;;;8.64;90.42
63956;BME280;50131;52.084;5.228;2022-10-03T04:44:54;102724.0;;;8.6;90.66
63956;BME280;50131;52.084;5.228;2022-10-03T04:46:38;102720.0;;;8.71;90.4
63956;BME280;50131;52.084;5.228;2022-10-03T04:48:23;102722.0;;;8.71;90.2
63956;BME280;50131;52.084;5.228;2022-10-03T04:50:20;102720.0;;;8.56;90.61
63956;BME280;50131;52.084;5.228;2022-10-03T04:53:52;102721.0;;;8.45;90.93
63956;BME280;50131;52.084;5.228;2022-10-03T04:55:41;102725.0;;;8.48;92.66
63956;BME280;50131;52.084;5.228;2022-10-03T04:57:27;102728.0;;;8.58;90.64
63956;BME280;50131;52.084;5.228;2022-10-03T04:59:25;102733.99999999999;;;8.58;91.31
63956;BME280;50131;52.084;5.228;2022-10-03T05:01:16;102729.0;;;8.42;91.74
63956;BME280;50131;52.084;5.228;2022-10-03T05:03:02;102733.0;;;8.39;91.92
63956;BME280;50131;52.084;5.228;2022-10-03T05:04:52;102728.0;;;8.35;91.53
63956;BME280;50131;52.084;5.228;2022-10-03T05:08:29;102724.0;;;8.4;91.83
63956;BME280;50131;52.084;5.228;2022-10-03T05:10:39;102726.0;;;8.41;91.0
63956;BME280;50131;52.084;5.228;2022-10-03T05:12:28;102727.0;;;8.34;91.15
63956;BME280;50131;52.084;5.228;2022-10-03T05:14:17;102732.0;;;8.38;90.9
63956;BME280;50131;52.084;5.228;2022-10-03T05:16:02;102729.0;;;8.33;91.03
63956;BME280;50131;52.084;5.228;2022-10-03T05:17:50;102734.99999999999;;;8.24;90.87
63956;BME280;50131;52.084;5.228;2022-10-03T05:19:41;102739.00000000001;;;8.2;90.63
63956;BME280;50131;52.084;5.228;2022-10-03T05:21:54;102742.0;;;8.2;91.09
63956;BME280;50131;52.084;5.228;2022-10-03T05:23:40;102738.00000000001;;;8.17;90.62
63956;BME280;50131;52.084;5.228;2022-10-03T05:27:17;102741.00000000001;;;8.16;90.56
63956;BME280;50131;52.084;5.228;2022-10-03T05:29:04;102740.00000000001;;;8.24;91.37
63956;BME280;50131;52.084;5.228;2022-10-03T05:30:52;102741.00000000001;;;8.28;91.31
63956;BME280;50131;52.084;5.228;2022-10-03T05:32:39;102739.00000000001;;;8.2;92.15
63956;BME280;50131;52.084;5.228;2022-10-03T05:34:31;102740.00000000001;;;8.18;91.39
63956;BME280;50131;52.084;5.228;2022-10-03T05:36:17;102734.99999999999;;;8.15;92.8
63956;BME280;50131;52.084;5.228;2022-10-03T05:40:15;102740.00000000001;;;8.13;92.13
63956;BME280;50131;52.084;5.228;2022-10-03T05:42:13;102744.0;;;8.31;92.06
63956;BME280;50131;52.084;5.228;2022-10-03T05:44:03;102746.0;;;8.39;91.14
63956;BME280;50131;52.084;5.228;2022-10-03T05:45:47;102746.0;;;8.48;90.88
63956;BME280;50131;52.084;5.228;2022-10-03T05:47:49;102744.0;;;8.39;90.68
63956;BME280;50131;52.084;5.228;2022-10-03T05:49:44;102747.0;;;8.4;91.17
63956;BME280;50131;52.084;5.228;2022-10-03T05:51:42;102746.0;;;8.27;90.62
63956;BME280;50131;52.084;5.228;2022-10-03T05:53:42;102747.0;;;8.24;90.72
63956;BME280;50131;52.084;5.228;2022-10-03T05:55:52;102748.0;;;8.16;90.7
63956;BME280;50131;52.084;5.228;2022-10-03T05:57:59;102749.0;;;8.15;91.28
63956;BME280;50131;52.084;5.228;2022-10-03T06:02:16;102754.0;;;8.22;91.91
63956;BME280;50131;52.084;5.228;2022-10-03T06:05:05;102754.0;;;8.19;91.45
63956;BME280;50131;52.084;5.228;2022-10-03T06:07:13;102754.0;;;8.25;92.79
63956;BME280;50131;52.084;5.228;2022-10-03T06:12:18;102758.0;;;8.31;92.01
63956;BME280;50131;52.084;5.228;2022-10-03T06:14:23;102758.0;;;8.35;92.01
63956;BME280;50131;52.084;5.228;2022-10-03T06:16:21;102758.99999999999;;;8.4;91.72
63956;BME280;50131;52.084;5.228;2022-10-03T06:18:14;102763.00000000001;;;8.5;92.03
63956;BME280;50131;52.084;5.228;2022-10-03T06:21:17;102759.99999999999;;;8.63;92.71
63956;BME280;50131;52.084;5.228;2022-10-03T06:23:54;102765.00000000001;;;8.73;92.11
63956;BME280;50131;52.084;5.228;2022-10-03T06:26:44;102767.0;;;8.75;92.01
63956;BME280;50131;52.084;5.228;2022-10-03T06:29:49;102773.0;;;8.92;91.92
63956;BME280;50131;52.084;5.228;2022-10-03T06:32:24;102774.0;;;8.91;92.12
63956;BME280;50131;52.084;5.228;2022-10-03T06:35:53;102768.0;;;9.01;92.99
63956;BME280;50131;52.084;5.228;2022-10-03T06:38:01;102769.0;;;9.09;93.37
63956;BME280;50131;52.084;5.228;2022-10-03T06:43:11;102770.0;;;9.24;94.01
63956;BME280;50131;52.084;5.228;2022-10-03T06:45:43;102776.0;;;9.32;93.92
63956;BME280;50131;52.084;5.228;2022-10-03T06:48:33;102769.0;;;9.57;93.07
63956;BME280;50131;52.084;5.228;2022-10-03T06:53:15;102771.0;;;9.84;93.05
63956;BME280;50131;52.084;5.228;2022-10-03T06:57:08;102776.0;;;9.96;92.8
63956;BME280;50131;52.084;5.228;2022-10-03T07:00:15;102775.0;;;10.01;92.6
63956;BME280;50131;52.084;5.228;2022-10-03T07:06:20;102786.99999999999;;;10.32;91.98
63956;BME280;50131;52.084;5.228;2022-10-03T07:08:45;102774.0;;;10.33;92.77
63956;BME280;50131;52.084;5.228;2022-10-03T07:12:20;102770.0;;;10.46;92.56
63956;BME280;50131;52.084;5.228;2022-10-03T07:15:13;102772.0;;;10.63;91.57
63956;BME280;50131;52.084;5.228;2022-10-03T07:20:04;102770.0;;;10.65;92.25
63956;BME280;50131;52.084;5.228;2022-10-03T07:23:44;102771.0;;;10.66;92.3
63956;BME280;50131;52.084;5.228;2022-10-03T07:25:25;102782.0;;;10.95;92.31
63956;BME280;50131;52.084;5.228;2022-10-03T07:27:42;102782.0;;;11.02;92.26
63956;BME280;50131;52.084;5.228;2022-10-03T07:29:34;102792.0;;;11.11;92.48
63956;BME280;50131;52.084;5.228;2022-10-03T07:31:25;102790.00000000001;;;11.17;92.22
63956;BME280;50131;52.084;5.228;2022-10-03T07:40:32;102789.00000000001;;;11.37;92.46
63956;BME280;50131;52.084;5.228;2022-10-03T07:50:48;102799.0;;;11.95;92.25
63956;BME280;50131;52.084;5.228;2022-10-03T07:53:06;102803.0;;;11.93;92.54
63956;BME280;50131;52.084;5.228;2022-10-03T07:55:24;102804.0;;;12.07;92.48
63956;BME280;50131;52.084;5.228;2022-10-03T07:58:49;102802.0;;;12.17;92.34
63956;BME280;50131;52.084;5.228;2022-10-03T08:01:16;102811.99999999999;;;12.37;92.06
63956;BME280;50131;52.084;5.228;2022-10-03T08:03:34;102817.0;;;12.46;91.84
63956;BME280;50131;52.084;5.228;2022-10-03T08:06:37;102808.99999999999;;;12.5;91.47
63956;BME280;50131;52.084;5.228;2022-10-03T08:08:32;102809.99999999999;;;12.6;91.68
63956;BME280;50131;52.084;5.228;2022-10-03T08:11:29;102814.00000000001;;;12.72;90.87
63956;BME280;50131;52.084;5.228;2022-10-03T08:14:54;102816.00000000001;;;12.77;90.45
63956;BME280;50131;52.084;5.228;2022-10-03T08:16:49;102820.0;;;12.82;90.43
63956;BME280;50131;52.084;5.228;2022-10-03T08:19:08;102820.0;;;12.89;90.28
63956;BME280;50131;52.084;5.228;2022-10-03T08:21:18;102818.0;;;12.98;90.29
63956;BME280;50131;52.084;5.228;2022-10-03T08:23:12;102814.00000000001;;;12.96;91.0
63956;BME280;50131;52.084;5.228;2022-10-03T08:25:58;102817.0;;;13.04;90.36
63956;BME280;50131;52.084;5.228;2022-10-03T08:27:55;102817.0;;;13.1;90.7
63956;BME280;50131;52.084;5.228;2022-10-03T08:30:19;102817.0;;;13.22;90.68
63956;BME280;50131;52.084;5.228;2022-10-03T08:36:17;102823.0;;;13.37;90.49
63956;BME280;50131;52.084;5.228;2022-10-03T08:39:30;102821.0;;;13.51;90.32
63956;BME280;50131;52.084;5.228;2022-10-03T08:42:13;102815.00000000001;;;13.63;90.06
63956;BME280;50131;52.084;5.228;2022-10-03T08:46:15;102819.0;;;13.66;89.56
63956;BME280;50131;52.084;5.228;2022-10-03T08:48:26;102820.0;;;13.75;89.73
63956;BME280;50131;52.084;5.228;2022-10-03T08:52:18;102826.0;;;13.88;89.33
63956;BME280;50131;52.084;5.228;2022-10-03T08:54:17;102826.0;;;13.93;89.07
63956;BME280;50131;52.084;5.228;2022-10-03T08:56:07;102827.0;;;14.01;88.92
63956;BME280;50131;52.084;5.228;2022-10-03T08:58:21;102829.0;;;14.1;88.65
63956;BME280;50131;52.084;5.228;2022-10-03T09:00:07;102827.0;;;14.08;89.16
63956;BME280;50131;52.084;5.228;2022-10-03T09:03:39;102831.0;;;14.08;89.7
63956;BME280;50131;52.084;5.228;2022-10-03T09:07:25;102834.99999999999;;;14.09;88.54
63956;BME280;50131;52.084;5.228;2022-10-03T09:09:32;102833.0;;;14.22;88.78
63956;BME280;50131;52.084;5.228;2022-10-03T09:15:41;102820.0;;;14.28;88.84
63956;BME280;50131;52.084;5.228;2022-10-03T09:18:49;102825.0;;;14.53;87.61
63956;BME280;50131;52.084;5.228;2022-10-03T09:20:54;102829.0;;;14.58;87.65
63956;BME280;50131;52.084;5.228;2022-10-03T09:25:09;102829.0;;;14.64;87.79
63956;BME280;50131;52.084;5.228;2022-10-03T09:27:24;102827.0;;;14.67;88.07
63956;BME280;50131;52.084;5.228;2022-10-03T09:29:52;102822.0;;;14.77;87.56
63956;BME280;50131;52.084;5.228;2022-10-03T09:31:57;102819.0;;;14.75;87.97
63956;BME280;50131;52.084;5.228;2022-10-03T09:34:25;102819.0;;;14.77;88.19
63956;BME280;50131;52.084;5.228;2022-10-03T09:39:46;102817.0;;;15.07;86.76
63956;BME280;50131;52.084;5.228;2022-10-03T09:43:17;102814.00000000001;;;15.23;85.98
63956;BME280;50131;52.084;5.228;2022-10-03T09:46:14;102815.00000000001;;;15.32;86.95
63956;BME280;50131;52.084;5.228;2022-10-03T09:49:56;102803.0;;;15.58;87.5
63956;BME280;50131;52.084;5.228;2022-10-03T09:54:20;102801.0;;;15.7;84.84
63956;BME280;50131;52.084;5.228;2022-10-03T09:56:46;102807.0;;;15.93;84.53
63956;BME280;50131;52.084;5.228;2022-10-03T10:00:24;102807.0;;;16.2;81.36
63956;BME280;50131;52.084;5.228;2022-10-03T10:02:13;102808.99999999999;;;16.25;81.06
63956;BME280;50131;52.084;5.228;2022-10-03T10:04:39;102805.0;;;16.34;79.78
63956;BME280;50131;52.084;5.228;2022-10-03T10:08:32;102804.0;;;16.45;80.39
63956;BME280;50131;52.084;5.228;2022-10-03T10:10:49;102804.0;;;16.59;78.19
63956;BME280;50131;52.084;5.228;2022-10-03T10:13:53;102802.0;;;16.68;77.39
63956;BME280;50131;52.084;5.228;2022-10-03T10:15:56;102800.0;;;16.75;76.49
63956;BME280;50131;52.084;5.228;2022-10-03T10:19:44;102802.0;;;16.86;75.27
63956;BME280;50131;52.084;5.228;2022-10-03T10:22:03;102801.0;;;16.95;75.02
63956;BME280;50131;52.084;5.228;2022-10-03T10:23:59;102805.0;;;17.13;74.3
63956;BME280;50131;52.084;5.228;2022-10-03T10:26:56;102801.0;;;17.11;73.86
63956;BME280;50131;52.084;5.228;2022-10-03T10:29:03;102803.0;;;17.11;74.61
63956;BME280;50131;52.084;5.228;2022-10-03T10:33:26;102802.0;;;17.32;73.78
63956;BME280;50131;52.084;5.228;2022-10-03T10:37:23;102807.0;;;17.37;73.95
63956;BME280;50131;52.084;5.228;2022-10-03T10:41:40;102807.0;;;17.46;71.39
63956;BME280;50131;52.084;5.228;2022-10-03T10:48:03;102803.0;;;17.54;70.83
63956;BME280;50131;52.084;5.228;2022-10-03T10:52:37;102803.0;;;17.62;69.62
63956;BME280;50131;52.084;5.228;2022-10-03T10:55:57;102804.0;;;17.66;69.37
63956;BME280;50131;52.084;5.228;2022-10-03T11:03:08;102801.0;;;17.75;68.74
63956;BME280;50131;52.084;5.228;2022-10-03T11:06:43;102803.0;;;17.91;70.05
63956;BME280;50131;52.084;5.228;2022-10-03T11:07:35;102806.0;;;17.91;68.36
63956;BME280;50131;52.084;5.228;2022-10-03T11:08:33;102806.0;;;17.91;68.36
63956;BME280;50131;52.084;5.228;2022-10-03T11:09:50;102801.0;;;17.95;67.95
63956;BME280;50131;52.084;5.228;2022-10-03T11:13:23;102804.0;;;17.97;68.3
63956;BME280;50131;52.084;5.228;2022-10-03T11:17:58;102797.0;;;18.18;67.28
63956;BME280;50131;52.084;5.228;2022-10-03T11:20:46;102792.0;;;18.16;66.33
63956;BME280;50131;52.084;5.228;2022-10-03T11:22:37;102794.0;;;18.22;65.47
63956;BME280;50131;52.084;5.228;2022-10-03T11:23:34;102794.0;;;18.22;65.47
63956;BME280;50131;52.084;5.228;2022-10-03T11:27:37;102791.00000000001;;;18.29;66.52
63956;BME280;50131;52.084;5.228;2022-10-03T11:28:42;102793.0;;;18.43;65.72
63956;BME280;50131;52.084;5.228;2022-10-03T11:29:42;102793.0;;;18.43;65.72
63956;BME280;50131;52.084;5.228;2022-10-03T11:30:22;102792.0;;;18.46;66.66
63956;BME280;50131;52.084;5.228;2022-10-03T11:32:50;102795.0;;;18.41;66.05
63956;BME280;50131;52.084;5.228;2022-10-03T11:36:26;102791.00000000001;;;18.34;66.12
63956;BME280;50131;52.084;5.228;2022-10-03T11:39:37;102791.00000000001;;;18.53;65.97
63956;BME280;50131;52.084;5.228;2022-10-03T11:41:26;102786.99999999999;;;18.68;65.8
63956;BME280;50131;52.084;5.228;2022-10-03T11:43:44;102786.99999999999;;;18.68;64.08
63956;BME280;50131;52.084;5.228;2022-10-03T11:46:17;102784.99999999999;;;18.77;63.66
63956;BME280;50131;52.084;5.228;2022-10-03T11:48:11;102788.00000000001;;;18.8;63.22
63956;BME280;50131;52.084;5.228;2022-10-03T11:50:14;102782.0;;;18.98;63.01
63956;BME280;50131;52.084;5.228;2022-10-03T11:52:17;102784.99999999999;;;19.11;61.72
63956;BME280;50131;52.084;5.228;2022-10-03T11:54:13;102783.0;;;19.12;60.83
63956;BME280;50131;52.084;5.228;2022-10-03T11:56:09;102788.00000000001;;;19.25;60.94
63956;BME280;50131;52.084;5.228;2022-10-03T11:58:05;102778.0;;;19.23;60.03
63956;BME280;50131;52.084;5.228;2022-10-03T11:59:57;102775.0;;;19.3;59.73
63956;BME280;50131;52.084;5.228;2022-10-03T12:01:43;102781.0;;;19.34;60.37
63956;BME280;50131;52.084;5.228;2022-10-03T12:03:32;102773.0;;;19.48;60.59
63956;BME280;50131;52.084;5.228;2022-10-03T12:05:18;102775.0;;;19.41;57.78
63956;BME280;50131;52.084;5.228;2022-10-03T12:09:59;102769.0;;;19.64;57.33
63956;BME280;50131;52.084;5.228;2022-10-03T12:11:47;102766.00000000001;;;19.72;58.2
63956;BME280;50131;52.084;5.228;2022-10-03T12:15:26;102767.0;;;19.84;59.39
63956;BME280;50131;52.084;5.228;2022-10-03T12:17:10;102768.0;;;19.81;58.25
63956;BME280;50131;52.084;5.228;2022-10-03T12:18:51;102769.0;;;19.63;58.42
63956;BME280;50131;52.084;5.228;2022-10-03T12:20:37;102764.00000000001;;;19.68;59.65
63956;BME280;50131;52.084;5.228;2022-10-03T12:22:32;102765.00000000001;;;19.86;60.75
63956;BME280;50131;52.084;5.228;2022-10-03T12:24:23;102766.00000000001;;;19.71;58.35
63956;BME280;50131;52.084;5.228;2022-10-03T12:27:49;102763.00000000001;;;19.78;59.41
63956;BME280;50131;52.084;5.228;2022-10-03T12:29:35;102759.99999999999;;;19.86;58.52
63956;BME280;50131;52.084;5.228;2022-10-03T12:31:17;102761.99999999999;;;20.02;60.36
63956;BME280;50131;52.084;5.228;2022-10-03T12:33:07;102759.99999999999;;;20.02;59.32
63956;BME280;50131;52.084;5.228;2022-10-03T12:35:02;102764.00000000001;;;19.95;58.19
63956;BME280;50131;52.084;5.228;2022-10-03T12:36:48;102764.00000000001;;;19.96;58.43
63956;BME280;50131;52.084;5.228;2022-10-03T12:40:23;102757.0;;;19.84;58.1
63956;BME280;50131;52.084;5.228;2022-10-03T12:42:15;102758.0;;;19.79;59.65
63956;BME280;50131;52.084;5.228;2022-10-03T12:44:17;102754.0;;;19.8;58.57
63956;BME280;50131;52.084;5.228;2022-10-03T12:46:01;102752.0;;;19.68;57.48
63956;BME280;50131;52.084;5.228;2022-10-03T12:47:55;102746.0;;;19.78;59.08
63956;BME280;50131;52.084;5.228;2022-10-03T12:49:43;102751.0;;;19.75;58.37
63956;BME280;50131;52.084;5.228;2022-10-03T12:51:36;102745.0;;;19.7;58.77
63956;BME280;50131;52.084;5.228;2022-10-03T12:53:24;102741.00000000001;;;19.66;58.91
63956;BME280;50131;52.084;5.228;2022-10-03T12:57:25;102742.0;;;19.63;58.79
63956;BME280;50131;52.084;5.228;2022-10-03T12:59:14;102743.0;;;19.64;58.62
63956;BME280;50131;52.084;5.228;2022-10-03T13:01:00;102750.0;;;19.77;60.33
63956;BME280;50131;52.084;5.228;2022-10-03T13:02:47;102748.0;;;19.72;59.82
63956;BME280;50131;52.084;5.228;2022-10-03T13:04:39;102747.0;;;19.73;58.28
63956;BME280;50131;52.084;5.228;2022-10-03T13:06:29;102747.0;;;19.73;58.81
63956;BME280;50131;52.084;5.228;2022-10-03T13:08:19;102742.0;;;19.62;57.79
63956;BME280;50131;52.084;5.228;2022-10-03T13:10:14;102738.00000000001;;;19.54;58.1
63956;BME280;50131;52.084;5.228;2022-10-03T13:14:03;102741.00000000001;;;19.47;58.64
63956;BME280;50131;52.084;5.228;2022-10-03T13:15:47;102734.99999999999;;;19.52;58.06
63956;BME280;50131;52.084;5.228;2022-10-03T13:17:39;102738.00000000001;;;19.52;58.64